Time;durP1;ratioP1;P1;durP2;ratioP2;P2;SDS_P1;SDS_P2;PMS_P1;PMS_P2;Temp;Humidity;BMP_temperature;BMP_pressure;BME280_temperature;BME280_humidity;BME280_pressure;Samples;Min_cycle;Max_cycle;Signal;HPM_P1;HPM_P2
2023/04/07 00:09:46;;;;;;;9.60;7.80;;;;;;;0.43;96.79;99464.79;439262;1254;139267;-76
2023/04/07 00:19:52;;;;;;;9.20;8.20;;;;;;;0.41;96.98;99457.77;439242;1250;140725;-77
2023/04/07 00:29:58;;;;;;;9.80;8.80;;;;;;;0.38;97.12;99455.27;439405;1253;138557;-76
2023/04/07 00:40:05;;;;;;;9.50;8.10;;;;;;;0.39;97.12;99454.36;442233;1254;138641;-76
2023/04/07 00:50:12;;;;;;;8.90;7.70;;;;;;;0.39;97.10;99448.48;439840;1254;139430;-76
2023/04/07 01:00:18;;;;;;;11.40;9.30;;;;;;;0.39;97.32;99434.55;439546;1253;139006;-76
2023/04/07 01:10:33;;;;;;;10.50;7.20;;;;;;;0.35;97.55;99425.02;439532;1254;139386;-76
2023/04/07 01:20:43;;;;;;;9.80;8.60;;;;;;;0.32;97.77;99423.02;439376;1253;139218;-76
2023/04/07 01:30:54;;;;;;;7.90;6.90;;;;;;;0.34;98.03;99418.67;439406;1253;139013;-75
2023/04/07 01:41:03;;;;;;;8.90;7.70;;;;;;;0.35;98.06;99415.02;439389;1254;139186;-77
2023/04/07 01:51:16;;;;;;;9.80;8.60;;;;;;;0.39;98.31;99413.73;439242;1254;138717;-74
2023/04/07 02:01:22;;;;;;;10.50;8.70;;;;;;;0.40;98.42;99410.24;439605;1253;139153;-75
2023/04/07 02:11:29;;;;;;;10.60;9.00;;;;;;;0.41;98.52;99394.73;439570;1254;139081;-74
2023/04/07 02:21:35;;;;;;;10.70;9.60;;;;;;;0.43;98.72;99392.95;440702;1253;139473;-75
2023/04/07 02:31:41;;;;;;;13.70;10.50;;;;;;;0.44;98.88;99390.52;439852;1251;139271;-74
2023/04/07 02:41:47;;;;;;;16.80;11.50;;;;;;;0.47;99.20;99387.53;439640;1251;139746;-76
2023/04/07 02:51:53;;;;;;;12.80;11.50;;;;;;;0.49;99.33;99385.06;439468;1253;138963;-77
2023/04/07 03:01:59;;;;;;;15.80;11.80;;;;;;;0.52;99.63;99385.66;439444;1251;140850;-76
2023/04/07 03:12:06;;;;;;;16.00;12.50;;;;;;;0.57;99.74;99386.58;442314;1251;139051;-77
2023/04/07 03:22:11;;;;;;;14.70;12.20;;;;;;;0.59;99.91;99389.98;439675;1251;138895;-76
2023/04/07 03:32:17;;;;;;;12.70;9.70;;;;;;;0.63;99.96;99384.88;439434;1253;139838;-76
2023/04/07 03:42:23;;;;;;;10.60;9.00;;;;;;;0.65;100.00;99381.19;439515;1251;140634;-74
2023/04/07 03:52:29;;;;;;;13.50;10.30;;;;;;;0.66;99.99;99375.30;439402;1253;138758;-76
2023/04/07 04:02:35;;;;;;;13.20;10.40;;;;;;;0.69;100.00;99372.81;439050;1251;139369;-75
2023/04/07 04:12:41;;;;;;;12.50;9.40;;;;;;;0.72;100.00;99368.23;439167;1250;140135;-76
2023/04/07 04:22:47;;;;;;;16.10;12.20;;;;;;;0.76;100.00;99366.27;439388;1251;138929;-74
2023/04/07 04:32:53;;;;;;;16.10;13.50;;;;;;;0.81;100.00;99368.03;439424;1251;139891;-76
2023/04/07 04:42:59;;;;;;;16.10;11.80;;;;;;;0.87;100.00;99371.65;439502;1254;139504;-76
2023/04/07 04:53:05;;;;;;;18.20;13.80;;;;;;;0.95;100.00;99367.98;439534;1251;140962;-76
2023/04/07 05:03:11;;;;;;;17.30;12.50;;;;;;;1.02;100.00;99371.05;439368;1251;139763;-76
2023/04/07 05:13:17;;;;;;;16.40;11.40;;;;;;;1.11;100.00;99381.86;439685;1251;139988;-75
2023/04/07 05:23:23;;;;;;;17.00;11.60;;;;;;;1.17;100.00;99383.05;440001;1251;140080;-76
2023/04/07 05:33:29;;;;;;;19.70;12.20;;;;;;;1.27;100.00;99394.51;439861;1253;139443;-75
2023/04/07 05:43:35;;;;;;;16.60;12.80;;;;;;;1.38;100.00;99391.09;440634;1251;140006;-73
2023/04/07 05:53:40;;;;;;;14.00;11.40;;;;;;;1.54;100.00;99393.55;441448;1249;140363;-75
2023/04/07 06:03:46;;;;;;;13.70;10.60;;;;;;;1.72;100.00;99384.02;440444;1251;140337;-74
2023/04/07 06:13:52;;;;;;;23.90;17.60;;;;;;;1.91;100.00;99377.41;441165;1250;139012;-75
2023/04/07 06:23:58;;;;;;;19.20;15.30;;;;;;;2.06;100.00;99382.96;443267;1250;139939;-76
2023/04/07 06:34:04;;;;;;;19.40;15.70;;;;;;;2.16;100.00;99379.73;439189;1250;139100;-75
2023/04/07 06:44:10;;;;;;;15.80;12.80;;;;;;;2.29;100.00;99377.89;439589;1250;139292;-76
2023/04/07 06:54:16;;;;;;;16.00;12.70;;;;;;;2.46;100.00;99371.98;439468;1253;139528;-76
2023/04/07 07:04:22;;;;;;;14.40;11.20;;;;;;;2.67;100.00;99373.84;439084;1251;139446;-75
2023/04/07 07:14:28;;;;;;;17.30;12.80;;;;;;;2.86;100.00;99377.35;439179;1250;139460;-75
2023/04/07 07:24:34;;;;;;;17.00;14.00;;;;;;;2.92;100.00;99381.45;438803;1251;139281;-74
2023/04/07 07:34:40;;;;;;;23.00;16.10;;;;;;;3.08;100.00;99383.99;439130;1250;140059;-75
2023/04/07 07:44:46;;;;;;;18.90;13.90;;;;;;;3.32;100.00;99387.27;438980;1250;139766;-75
2023/04/07 07:54:52;;;;;;;21.70;14.70;;;;;;;3.62;100.00;99384.08;439183;1250;139725;-76
2023/04/07 08:04:58;;;;;;;18.30;14.20;;;;;;;3.91;100.00;99384.17;439405;1253;139500;-75
2023/04/07 08:15:05;;;;;;;28.30;22.60;;;;;;;4.25;100.00;99388.89;439734;1253;139724;-76
2023/04/07 08:25:11;;;;;;;17.60;15.30;;;;;;;4.40;100.00;99384.95;441235;1250;139159;-75
2023/04/07 08:35:17;;;;;;;17.60;14.80;;;;;;;4.51;100.00;99382.62;439620;1250;138991;-75
2023/04/07 08:45:25;;;;;;;17.40;14.40;;;;;;;4.61;100.00;99382.70;439027;1253;140628;-74
2023/04/07 08:55:32;;;;;;;17.90;12.90;;;;;;;4.66;100.00;99377.98;439154;1250;139228;-75
2023/04/07 09:05:47;;;;;;;18.30;15.30;;;;;;;4.76;100.00;99376.65;439262;1250;139389;-75
2023/04/07 09:15:53;;;;;;;17.00;12.50;;;;;;;4.84;100.00;99374.97;439319;1250;139060;-76
2023/04/07 09:26:02;;;;;;;18.50;14.60;;;;;;;4.63;100.00;99371.86;439218;1250;139172;-76
2023/04/07 09:36:11;;;;;;;20.30;16.80;;;;;;;4.60;100.00;99361.92;439580;1251;138960;-76
2023/04/07 09:46:20;;;;;;;20.90;15.80;;;;;;;4.63;100.00;99360.61;439523;1253;139079;-75
2023/04/07 09:56:27;;;;;;;29.70;20.20;;;;;;;4.82;100.00;99363.78;439075;1251;139829;-74
2023/04/07 10:06:34;;;;;;;24.10;18.00;;;;;;;4.84;100.00;99362.80;438947;1251;139836;-74
2023/04/07 10:16:39;;;;;;;;;;;;;;;4.95;100.00;99360.63;439236;1249;139642;-74
2023/04/07 10:26:47;;;;;;;27.50;19.00;;;;;;;4.96;100.00;99349.82;439190;1251;125309;-75
2023/04/07 10:37:12;;;;;;;17.00;15.00;;;;;;;5.07;100.00;99355.73;439142;1249;140792;-75
2023/04/07 10:47:18;;;;;;;14.10;11.60;;;;;;;5.06;100.00;99354.39;439401;1250;170781;-75
2023/04/07 10:57:24;;;;;;;14.10;11.90;;;;;;;5.05;100.00;99355.30;441802;1251;138909;-74
2023/04/07 11:07:51;;;;;;;13.40;12.00;;;;;;;5.14;100.00;99362.19;439133;1250;139081;-74
2023/04/07 11:18:23;;;;;;;15.90;13.30;;;;;;;5.25;100.00;99366.20;439202;1251;139660;-75
2023/04/07 11:28:29;;;;;;;16.50;14.60;;;;;;;5.32;100.00;99360.69;438866;1253;138995;-75
2023/04/07 11:38:39;;;;;;;17.90;15.70;;;;;;;5.39;100.00;99363.15;439463;1253;139676;-74
2023/04/07 11:48:46;;;;;;;18.00;16.20;;;;;;;5.56;100.00;99363.22;439334;1253;139544;-74
2023/04/07 11:58:53;;;;;;;18.50;16.10;;;;;;;5.83;100.00;99363.50;439222;1253;139559;-75
2023/04/07 12:08:59;;;;;;;19.00;16.90;;;;;;;5.92;100.00;99361.02;439632;1250;139887;-75
2023/04/07 12:19:05;;;;;;;21.70;19.00;;;;;;;6.06;100.00;99361.77;439154;1250;139294;-75
2023/04/07 12:29:11;;;;;;;25.00;19.90;;;;;;;6.09;100.00;99365.64;439655;1250;139110;-73
2023/04/07 12:39:18;;;;;;;41.80;21.50;;;;;;;6.10;100.00;99367.12;440104;1251;140553;-75
2023/04/07 12:49:24;;;;;;;27.20;21.60;;;;;;;6.15;100.00;99373.00;439616;1253;139213;-76
2023/04/07 12:59:30;;;;;;;25.20;19.70;;;;;;;6.14;100.00;99364.16;439798;1253;139621;-75
2023/04/07 13:09:35;;;;;;;24.50;20.10;;;;;;;6.21;100.00;99367.78;439643;1253;140837;-74
2023/04/07 13:19:41;;;;;;;28.10;23.30;;;;;;;6.50;100.00;99362.75;439591;1250;141045;-73
2023/04/07 13:29:48;;;;;;;26.70;22.10;;;;;;;6.74;100.00;99366.73;439928;1250;139106;-74
2023/04/07 13:39:55;;;;;;;26.90;22.60;;;;;;;6.86;100.00;99366.45;439362;1251;139878;-73
2023/04/07 13:50:01;;;;;;;29.60;23.90;;;;;;;7.05;100.00;99365.98;439602;1251;139342;-74
2023/04/07 14:00:08;;;;;;;30.10;22.80;;;;;;;7.23;100.00;99362.06;439626;1250;141507;-73
2023/04/07 14:10:14;;;;;;;27.20;21.80;;;;;;;7.38;100.00;99354.30;440804;1250;140218;-74
2023/04/07 14:20:20;;;;;;;25.70;22.00;;;;;;;7.26;100.00;99350.27;440327;1253;140286;-73
2023/04/07 14:30:27;;;;;;;28.60;24.00;;;;;;;7.30;100.00;99345.31;439840;1251;139149;-74
2023/04/07 14:40:55;;;;;;;29.80;24.20;;;;;;;7.41;100.00;99345.08;440483;1253;139284;-73
2023/04/07 14:51:13;;;;;;;29.10;23.00;;;;;;;7.58;100.00;99338.42;439683;1250;140091;-75
2023/04/07 15:01:19;;;;;;;26.60;23.00;;;;;;;7.64;100.00;99339.48;439705;1253;139932;-74
2023/04/07 15:11:26;;;;;;;28.60;23.60;;;;;;;7.67;100.00;99339.34;439687;1252;140464;-74
2023/04/07 15:21:32;;;;;;;32.50;27.30;;;;;;;7.86;100.00;99340.87;439346;1251;139245;-73
2023/04/07 15:31:37;;;;;;;22.70;20.00;;;;;;;8.07;100.00;99340.37;439691;1253;139361;-73
2023/04/07 15:41:43;;;;;;;18.30;15.90;;;;;;;8.20;100.00;99346.31;439542;1253;141735;-73
2023/04/07 15:51:50;;;;;;;14.20;12.70;;;;;;;8.25;100.00;99351.56;439863;1250;139357;-74
2023/04/07 16:01:56;;;;;;;14.00;8.70;;;;;;;8.21;100.00;99356.33;440090;1253;141527;-74
2023/04/07 16:12:03;;;;;;;10.40;8.50;;;;;;;8.05;100.00;99369.80;439734;1251;140867;-74
2023/04/07 16:22:11;;;;;;;7.90;6.30;;;;;;;7.86;100.00;99390.23;439968;1249;140130;-76
2023/04/07 16:32:20;;;;;;;8.00;6.70;;;;;;;7.44;100.00;99415.83;439785;1251;140928;-73
2023/04/07 16:42:33;;;;;;;10.00;8.30;;;;;;;7.11;100.00;99433.75;439987;1250;139454;-76
2023/04/07 16:52:41;;;;;;;11.30;8.70;;;;;;;6.88;100.00;99455.45;440323;1251;139006;-74
2023/04/07 17:02:47;;;;;;;5.70;5.00;;;;;;;6.68;100.00;99474.35;440113;1251;139132;-75
2023/04/07 17:12:55;;;;;;;5.20;4.30;;;;;;;6.44;100.00;99475.19;439513;1253;139286;-75
2023/04/07 17:23:00;;;;;;;9.50;4.60;;;;;;;6.28;100.00;99481.31;439280;1253;140478;-75
2023/04/07 17:33:07;;;;;;;8.70;6.80;;;;;;;6.17;100.00;99502.73;439609;1252;139811;-73
2023/04/07 17:43:13;;;;;;;6.20;5.50;;;;;;;6.12;100.00;99514.77;439595;1250;139049;-74
2023/04/07 17:53:18;;;;;;;7.70;5.90;;;;;;;6.10;100.00;99531.55;439648;1253;140542;-74
2023/04/07 18:03:24;;;;;;;9.70;7.70;;;;;;;6.04;100.00;99548.17;439631;1253;139282;-73
2023/04/07 18:13:30;;;;;;;10.20;8.50;;;;;;;5.98;100.00;99562.83;439461;1250;140695;-74
2023/04/07 18:23:36;;;;;;;7.80;7.00;;;;;;;5.91;100.00;99580.48;439937;1251;139692;-72
2023/04/07 18:33:42;;;;;;;10.20;8.40;;;;;;;5.62;100.00;99587.01;440584;1251;139256;-73
2023/04/07 18:43:48;;;;;;;8.90;8.00;;;;;;;5.38;100.00;99605.17;440083;1253;139216;-74
2023/04/07 18:53:54;;;;;;;14.50;9.30;;;;;;;5.12;100.00;99609.20;439993;1253;139769;-74
2023/04/07 19:04:00;;;;;;;13.50;10.80;;;;;;;4.78;100.00;99622.52;439560;1251;139794;-73
2023/04/07 19:14:06;;;;;;;13.40;11.50;;;;;;;4.67;100.00;99631.44;439287;1253;139698;-70
2023/04/07 19:24:12;;;;;;;14.40;12.20;;;;;;;4.73;100.00;99647.31;439834;1253;139186;-76
2023/04/07 19:34:19;;;;;;;17.00;13.20;;;;;;;4.79;100.00;99664.45;439886;1253;140027;-76
2023/04/07 19:44:25;;;;;;;10.90;9.70;;;;;;;4.90;100.00;99676.02;440124;1253;140337;-76
2023/04/07 19:54:31;;;;;;;14.70;11.60;;;;;;;4.98;100.00;99692.36;440065;1253;139984;-76
2023/04/07 20:04:37;;;;;;;14.50;11.50;;;;;;;4.96;100.00;99707.35;440070;1257;139192;-77
2023/04/07 20:14:43;;;;;;;16.00;12.50;;;;;;;4.89;100.00;99721.33;439756;1253;139579;-73
2023/04/07 20:24:49;;;;;;;14.80;11.20;;;;;;;4.64;100.00;99735.95;439629;1253;139784;-73
2023/04/07 20:34:55;;;;;;;16.90;12.20;;;;;;;4.38;100.00;99745.23;439920;1255;139093;-74
2023/04/07 20:45:04;;;;;;;13.40;11.00;;;;;;;4.30;100.00;99760.39;439944;1251;139708;-73
2023/04/07 20:55:11;;;;;;;17.00;12.50;;;;;;;4.15;100.00;99761.78;439947;1254;141198;-73
2023/04/07 21:05:17;;;;;;;20.50;13.40;;;;;;;3.80;100.00;99767.61;439857;1251;139113;-74
2023/04/07 21:15:23;;;;;;;18.80;15.80;;;;;;;3.52;100.00;99775.44;439470;1255;139649;-73
2023/04/07 21:25:29;;;;;;;16.00;13.70;;;;;;;3.54;100.00;99784.73;439449;1253;139126;-74
2023/04/07 21:35:35;;;;;;;15.70;11.80;;;;;;;3.58;100.00;99786.88;439817;1253;140874;-73
2023/04/07 21:45:41;;;;;;;16.30;12.60;;;;;;;3.58;100.00;99791.36;439483;1254;140428;-73
2023/04/07 21:55:47;;;;;;;17.00;13.00;;;;;;;3.55;100.00;99802.90;440644;1253;139581;-71
2023/04/07 22:05:53;;;;;;;14.60;12.80;;;;;;;3.44;100.00;99804.59;440003;1251;139081;-73
2023/04/07 22:16:00;;;;;;;18.00;13.70;;;;;;;3.45;100.00;99808.40;440046;1253;140857;-74
2023/04/07 22:26:07;;;;;;;16.80;12.70;;;;;;;3.54;100.00;99804.84;439449;1253;139532;-71
2023/04/07 22:36:12;;;;;;;17.00;14.50;;;;;;;3.58;100.00;99803.84;439577;1253;139311;-73
2023/04/07 22:46:18;;;;;;;17.20;13.00;;;;;;;3.60;100.00;99813.14;439147;1251;209467;-73
2023/04/07 22:56:26;;;;;;;18.30;13.80;;;;;;;3.59;100.00;99828.06;439318;1251;139565;-72
2023/04/07 23:06:30;;;;;;;;;;;;;;;3.55;100.00;99838.71;439873;1251;139129;-73
2023/04/07 23:16:37;;;;;;;18.80;13.00;;;;;;;3.49;100.00;99856.22;439707;1253;126302;-72
2023/04/07 23:26:42;;;;;;;15.90;13.10;;;;;;;3.35;100.00;99867.17;439972;1251;139931;-72
2023/04/07 23:36:48;;;;;;;19.10;13.20;;;;;;;3.27;100.00;99867.40;439503;1251;139724;-73
2023/04/07 23:46:54;;;;;;;18.50;14.80;;;;;;;3.24;100.00;99873.74;439509;1251;139695;-71
2023/04/07 23:57:01;;;;;;;17.20;13.00;;;;;;;3.17;100.00;99874.30;439254;1253;139234;-73
